createdAt,value
2018-06-08T00:00:34.162Z,20.49
2018-06-08T00:03:02.209Z,20.43
2018-06-08T00:05:30.290Z,20.39
2018-06-08T00:07:58.347Z,20.34
2018-06-08T00:10:26.409Z,20.31
2018-06-08T00:12:54.648Z,20.27
2018-06-08T00:15:22.719Z,20.24
2018-06-08T00:17:50.777Z,20.21
2018-06-08T00:20:18.816Z,20.18
2018-06-08T00:22:46.892Z,20.13
2018-06-08T00:25:14.929Z,20.09
2018-06-08T00:27:43.008Z,20.04
2018-06-08T00:30:11.063Z,19.99
2018-06-08T00:32:39.105Z,19.93
2018-06-08T00:35:07.147Z,19.88
2018-06-08T00:37:35.184Z,19.83
2018-06-08T00:40:03.274Z,19.79
2018-06-08T00:42:31.317Z,19.78
2018-06-08T00:44:59.367Z,19.74
2018-06-08T00:47:27.436Z,19.70
2018-06-08T00:49:55.478Z,19.65
2018-06-08T00:52:23.512Z,19.60
2018-06-08T00:54:51.575Z,19.55
2018-06-08T00:57:19.652Z,19.52
2018-06-08T00:59:47.704Z,19.47
2018-06-08T01:02:15.735Z,19.43
2018-06-08T01:04:43.784Z,19.39
2018-06-08T01:07:11.841Z,19.34
2018-06-08T01:09:39.909Z,19.30
2018-06-08T01:12:07.995Z,19.27
2018-06-08T01:17:03.316Z,19.15
2018-06-08T01:19:32.704Z,19.11
2018-06-08T01:22:00.980Z,19.06
2018-06-08T01:24:29.019Z,19.03
2018-06-08T01:26:57.096Z,19.01
2018-06-08T01:29:25.135Z,18.98
2018-06-08T01:31:53.179Z,18.96
2018-06-08T01:34:21.229Z,18.92
2018-06-08T01:36:49.275Z,18.88
2018-06-08T01:39:17.316Z,18.80
2018-06-08T01:41:45.380Z,18.78
2018-06-08T01:44:13.415Z,18.75
2018-06-08T01:46:41.460Z,18.72
2018-06-08T01:49:09.492Z,18.68
2018-06-08T01:51:37.538Z,18.62
2018-06-08T01:54:05.652Z,18.59
2018-06-08T01:56:33.692Z,18.57
2018-06-08T01:59:01.724Z,18.54
2018-06-08T02:01:29.779Z,18.53
2018-06-08T02:03:57.821Z,18.50
2018-06-08T02:06:25.882Z,18.47
2018-06-08T02:08:53.924Z,18.42
2018-06-08T02:11:21.972Z,18.39
2018-06-08T02:13:50.009Z,18.36
2018-06-08T02:16:18.052Z,18.32
2018-06-08T02:18:46.132Z,18.30
2018-06-08T02:21:14.212Z,18.25
2018-06-08T02:23:42.287Z,18.22
2018-06-08T02:26:10.339Z,18.20
2018-06-08T02:28:38.395Z,18.17
2018-06-08T02:31:06.440Z,18.15
2018-06-08T02:33:34.489Z,18.13
2018-06-08T02:36:02.524Z,18.10
2018-06-08T02:38:30.559Z,18.08
2018-06-08T02:40:58.608Z,18.04
2018-06-08T02:43:26.655Z,18.00
2018-06-08T02:45:54.705Z,17.96
2018-06-08T02:48:22.734Z,17.94
2018-06-08T02:50:50.779Z,17.92
2018-06-08T02:53:18.868Z,17.87
2018-06-08T02:55:46.922Z,17.80
2018-06-08T02:58:14.956Z,17.77
2018-06-08T03:00:42.992Z,17.75
2018-06-08T03:03:11.039Z,17.73
2018-06-08T03:05:39.077Z,17.71
2018-06-08T03:08:07.133Z,17.68
2018-06-08T03:10:35.196Z,17.65
2018-06-08T03:13:03.244Z,17.62
2018-06-08T03:15:31.273Z,17.61
2018-06-08T03:17:59.325Z,17.60
2018-06-08T03:20:27.768Z,17.56
2018-06-08T03:22:55.821Z,17.57
2018-06-08T03:25:23.848Z,17.57
2018-06-08T03:27:51.913Z,17.57
2018-06-08T03:30:20.009Z,17.59
2018-06-08T03:32:48.084Z,17.58
2018-06-08T03:35:16.298Z,17.55
2018-06-08T03:37:44.329Z,17.55
2018-06-08T03:40:12.376Z,17.56
2018-06-08T03:42:40.416Z,17.56
2018-06-08T03:45:08.457Z,17.56
2018-06-08T03:47:36.492Z,17.55
2018-06-08T03:50:04.528Z,17.58
2018-06-08T03:52:32.584Z,17.60
2018-06-08T03:55:00.627Z,17.60
2018-06-08T03:57:28.673Z,17.60
2018-06-08T03:59:56.720Z,17.59
2018-06-08T04:02:24.787Z,17.59
2018-06-08T04:04:52.791Z,17.60
2018-06-08T04:07:20.869Z,17.61
2018-06-08T04:09:48.921Z,17.65
2018-06-08T04:12:16.952Z,17.68
2018-06-08T04:14:45.007Z,17.71
2018-06-08T04:17:13.089Z,17.76
2018-06-08T04:19:41.132Z,17.80
2018-06-08T04:22:09.186Z,17.85
2018-06-08T04:24:37.248Z,17.90
2018-06-08T04:27:05.304Z,17.94
2018-06-08T04:29:33.334Z,17.96
2018-06-08T04:32:01.377Z,18.01
2018-06-08T04:34:29.412Z,18.06
2018-06-08T04:36:57.505Z,18.08
2018-06-08T04:39:25.553Z,18.15
2018-06-08T04:41:53.589Z,18.21
2018-06-08T04:44:21.628Z,18.28
2018-06-08T04:46:49.682Z,18.36
2018-06-08T04:49:17.728Z,18.42
2018-06-08T04:51:45.826Z,18.49
2018-06-08T04:54:13.829Z,18.59
2018-06-08T04:56:41.886Z,18.68
2018-06-08T04:59:09.941Z,18.76
2018-06-08T05:01:37.980Z,18.86
2018-06-08T05:04:06.038Z,18.99
2018-06-08T05:06:34.085Z,19.10
2018-06-08T05:09:02.149Z,19.21
2018-06-08T05:11:30.220Z,19.31
2018-06-08T05:13:58.259Z,19.44
2018-06-08T05:16:26.316Z,19.58
2018-06-08T05:18:54.365Z,19.71
2018-06-08T05:21:22.423Z,19.79
2018-06-08T05:23:50.468Z,19.87
2018-06-08T05:26:18.530Z,19.97
2018-06-08T05:28:46.557Z,20.09
2018-06-08T05:31:14.621Z,20.15
2018-06-08T05:33:42.688Z,20.22
2018-06-08T05:36:10.780Z,20.33
2018-06-08T05:38:38.783Z,20.40
2018-06-08T05:41:06.836Z,20.47
2018-06-08T05:43:34.900Z,20.58
2018-06-08T05:46:02.969Z,20.70
2018-06-08T05:48:31.035Z,20.81
2018-06-08T05:50:59.071Z,20.93
2018-06-08T05:53:27.138Z,21.06
2018-06-08T05:55:55.205Z,21.23
2018-06-08T05:58:23.246Z,21.36
2018-06-08T06:00:51.296Z,21.50
2018-06-08T06:03:19.364Z,21.59
2018-06-08T06:05:47.450Z,21.65
2018-06-08T06:08:15.511Z,21.74
2018-06-08T06:10:43.564Z,21.85
2018-06-08T06:13:11.621Z,21.97
2018-06-08T06:15:39.669Z,22.10
2018-06-08T06:18:07.732Z,22.21
2018-06-08T06:20:35.780Z,22.25
2018-06-08T06:23:03.852Z,22.31
2018-06-08T06:25:31.889Z,22.44
2018-06-08T06:27:59.943Z,22.60
2018-06-08T06:30:28.036Z,22.70
2018-06-08T06:32:56.080Z,22.82
2018-06-08T06:35:24.183Z,22.98
2018-06-08T06:37:52.225Z,23.08
2018-06-08T06:40:20.291Z,23.20
2018-06-08T06:42:48.340Z,23.39
2018-06-08T06:45:16.409Z,23.57
2018-06-08T06:47:44.474Z,23.72
2018-06-08T06:50:12.548Z,23.87
2018-06-08T06:52:40.612Z,23.98
2018-06-08T06:55:08.698Z,24.15
2018-06-08T06:57:36.761Z,24.30
2018-06-08T07:00:04.833Z,24.45
2018-06-08T07:02:32.880Z,24.60
2018-06-08T07:05:00.952Z,24.76
2018-06-08T07:07:29.048Z,24.92
2018-06-08T07:09:57.121Z,25.05
2018-06-08T07:12:25.176Z,25.16
2018-06-08T07:14:53.244Z,25.29
2018-06-08T07:17:21.316Z,25.43
2018-06-08T07:19:49.387Z,25.59
2018-06-08T07:22:20.187Z,25.80
2018-06-08T07:24:48.470Z,26.00
2018-06-08T07:27:16.591Z,26.12
2018-06-08T07:29:44.696Z,26.26
2018-06-08T07:32:12.743Z,26.40
2018-06-08T07:34:40.800Z,26.58
2018-06-08T07:37:08.875Z,26.75
2018-06-08T07:39:37.082Z,26.94
2018-06-08T07:42:05.214Z,27.02
2018-06-08T07:44:33.308Z,27.15
2018-06-08T07:47:01.329Z,27.34
2018-06-08T07:49:30.616Z,27.54
2018-06-08T07:51:58.657Z,27.81
2018-06-08T07:54:26.715Z,28.04
2018-06-08T07:56:54.820Z,28.16
2018-06-08T07:59:22.915Z,28.30
2018-06-08T08:01:50.997Z,28.58
2018-06-08T08:04:19.048Z,28.89
2018-06-08T08:06:47.092Z,29.09
2018-06-08T08:09:15.218Z,29.30
2018-06-08T08:11:43.245Z,29.52
2018-06-08T08:14:11.320Z,29.73
2018-06-08T08:16:39.364Z,29.76
2018-06-08T08:19:07.408Z,29.89
2018-06-08T08:21:35.497Z,30.02
2018-06-08T08:24:05.124Z,30.09
2018-06-08T08:26:33.187Z,30.29
2018-06-08T08:29:01.228Z,30.36
2018-06-08T08:31:29.276Z,30.56
2018-06-08T08:33:57.320Z,30.86
2018-06-08T08:36:25.364Z,31.10
2018-06-08T08:38:53.411Z,31.37
2018-06-08T08:41:21.672Z,31.59
2018-06-08T08:43:49.749Z,31.77
2018-06-08T08:46:17.801Z,31.82
2018-06-08T08:48:45.840Z,31.74
2018-06-08T08:51:13.889Z,31.89
2018-06-08T08:53:41.956Z,32.04
2018-06-08T08:56:10.029Z,32.05
2018-06-08T08:58:38.100Z,32.05
2018-06-08T09:01:06.165Z,32.05
2018-06-08T09:03:34.220Z,32.07
2018-06-08T09:06:02.264Z,32.19
2018-06-08T09:08:30.328Z,32.34
2018-06-08T09:10:58.396Z,32.27
2018-06-08T09:13:26.445Z,32.18
2018-06-08T09:15:54.513Z,32.26
2018-06-08T09:18:22.576Z,32.45
2018-06-08T09:20:50.628Z,32.78
2018-06-08T09:23:18.696Z,32.96
2018-06-08T09:25:46.747Z,33.29
2018-06-08T09:28:14.820Z,33.60
2018-06-08T09:30:42.878Z,33.81
2018-06-08T09:33:11.000Z,34.02
2018-06-08T09:35:39.069Z,33.80
2018-06-08T09:38:07.145Z,33.93
2018-06-08T09:40:35.209Z,34.27
2018-06-08T09:43:03.276Z,34.63
2018-06-08T09:45:31.332Z,34.87
2018-06-08T09:47:59.397Z,34.73
2018-06-08T09:50:27.469Z,34.73
2018-06-08T09:52:55.535Z,34.77
2018-06-08T09:55:23.580Z,34.88
2018-06-08T09:57:51.664Z,34.89
2018-06-08T10:00:25.114Z,35.08
2018-06-08T10:02:53.176Z,35.41
2018-06-08T10:05:21.257Z,35.44
2018-06-08T10:07:49.315Z,35.32
2018-06-08T10:10:17.374Z,35.37
2018-06-08T10:12:45.443Z,35.42
2018-06-08T10:15:13.491Z,35.44
2018-06-08T10:17:41.560Z,35.32
2018-06-08T10:20:09.623Z,35.56
2018-06-08T10:22:37.704Z,35.78
2018-06-08T10:25:05.760Z,35.80
2018-06-08T10:27:33.852Z,35.84
2018-06-08T10:30:01.920Z,36.02
2018-06-08T10:32:30.006Z,36.32
2018-06-08T10:34:58.064Z,36.52
2018-06-08T10:37:26.121Z,36.36
2018-06-08T10:39:54.284Z,36.66
2018-06-08T10:42:22.329Z,36.84
2018-06-08T10:44:50.461Z,36.95
2018-06-08T10:47:18.557Z,37.09
2018-06-08T10:49:46.637Z,37.25
2018-06-08T10:52:14.716Z,37.24
2018-06-08T10:54:42.775Z,37.40
2018-06-08T10:57:10.825Z,37.64
2018-06-08T10:59:38.888Z,37.88
2018-06-08T11:02:06.943Z,38.06
2018-06-08T11:04:35.004Z,38.08
2018-06-08T11:07:03.067Z,37.98
2018-06-08T11:09:31.157Z,38.01
2018-06-08T11:11:59.204Z,37.97
2018-06-08T11:14:27.261Z,37.85
2018-06-08T11:16:55.328Z,37.93
2018-06-08T11:19:23.472Z,38.02
2018-06-08T11:21:51.550Z,38.18
2018-06-08T11:24:19.604Z,38.42
2018-06-08T11:26:47.656Z,38.56
2018-06-08T11:29:15.723Z,38.75
2018-06-08T11:31:43.765Z,38.90
2018-06-08T11:34:11.888Z,39.03
2018-06-08T11:36:39.952Z,39.16
2018-06-08T11:39:08.708Z,39.26
2018-06-08T11:41:36.762Z,39.31
2018-06-08T11:44:04.830Z,39.42
2018-06-08T11:46:32.876Z,39.15
2018-06-08T11:49:00.928Z,39.18
2018-06-08T11:51:28.992Z,39.14
2018-06-08T11:53:57.043Z,39.13
2018-06-08T11:56:25.096Z,39.24
2018-06-08T11:58:53.172Z,39.26
2018-06-08T12:01:21.245Z,39.36
2018-06-08T12:03:49.336Z,39.44
2018-06-08T12:06:17.402Z,39.58
2018-06-08T12:08:45.452Z,39.66
2018-06-08T12:11:13.522Z,39.29
2018-06-08T12:13:41.576Z,38.36
2018-06-08T12:16:09.689Z,38.11
2018-06-08T12:18:37.744Z,38.14
2018-06-08T12:21:05.809Z,38.24
2018-06-08T12:23:33.875Z,38.40
2018-06-08T12:26:01.958Z,38.56
2018-06-08T12:28:30.053Z,38.60
2018-06-08T12:30:58.136Z,38.79
2018-06-08T12:33:26.190Z,38.81
2018-06-08T12:35:54.269Z,38.98
2018-06-08T12:38:22.327Z,39.03
2018-06-08T12:40:50.406Z,38.89
2018-06-08T12:43:18.517Z,38.49
2018-06-08T12:45:46.657Z,38.59
2018-06-08T12:48:14.707Z,38.75
2018-06-08T12:50:42.787Z,38.93
2018-06-08T12:53:10.863Z,39.09
2018-06-08T12:55:38.958Z,39.28
2018-06-08T12:58:07.006Z,39.26
2018-06-08T13:00:35.069Z,39.20
2018-06-08T13:03:03.172Z,38.94
2018-06-08T13:05:31.224Z,38.78
2018-06-08T13:07:59.285Z,38.91
2018-06-08T13:10:27.359Z,39.00
2018-06-08T13:12:55.424Z,38.70
2018-06-08T13:15:23.491Z,38.87
2018-06-08T13:17:51.564Z,39.04
2018-06-08T13:20:19.648Z,39.19
2018-06-08T13:22:47.701Z,39.33
2018-06-08T13:25:15.781Z,39.61
2018-06-08T13:27:43.857Z,39.68
2018-06-08T13:30:11.919Z,39.75
2018-06-08T13:32:39.971Z,39.79
2018-06-08T13:35:08.043Z,39.88
2018-06-08T13:37:36.094Z,39.97
2018-06-08T13:40:04.149Z,40.08
2018-06-08T13:42:32.216Z,40.20
2018-06-08T13:45:00.284Z,40.31
2018-06-08T13:47:28.358Z,40.26
2018-06-08T13:49:56.426Z,40.15
2018-06-08T13:52:24.508Z,40.03
2018-06-08T13:54:52.540Z,39.91
2018-06-08T13:57:20.613Z,39.81
2018-06-08T13:59:48.660Z,39.75
2018-06-08T14:02:16.728Z,39.75
2018-06-08T14:04:44.777Z,39.75
2018-06-08T14:07:12.835Z,39.77
2018-06-08T14:09:40.903Z,39.76
2018-06-08T14:12:08.953Z,39.54
2018-06-08T14:14:37.055Z,39.16
2018-06-08T14:17:05.368Z,39.03
2018-06-08T14:19:33.413Z,39.06
2018-06-08T14:22:01.535Z,39.00
2018-06-08T14:24:29.552Z,38.97
2018-06-08T14:26:57.625Z,39.04
2018-06-08T14:29:25.683Z,38.93
2018-06-08T14:31:53.740Z,38.89
2018-06-08T14:34:21.809Z,38.75
2018-06-08T14:36:49.961Z,38.62
2018-06-08T14:39:18.069Z,38.47
2018-06-08T14:41:46.139Z,38.25
2018-06-08T14:44:14.196Z,38.13
2018-06-08T14:46:42.440Z,38.11
2018-06-08T14:49:10.508Z,38.05
2018-06-08T14:51:38.574Z,37.86
2018-06-08T14:54:06.667Z,37.76
2018-06-08T14:56:34.736Z,37.67
2018-06-08T14:59:02.833Z,37.54
2018-06-08T15:01:30.919Z,37.47
2018-06-08T15:03:58.971Z,37.39
2018-06-08T15:06:27.041Z,37.19
2018-06-08T15:08:55.115Z,37.08
2018-06-08T15:11:23.172Z,37.04
2018-06-08T15:13:51.312Z,36.91
2018-06-08T15:16:19.415Z,36.72
2018-06-08T15:18:47.496Z,36.59
2018-06-08T15:21:15.551Z,36.47
2018-06-08T15:23:43.749Z,36.33
2018-06-08T15:26:11.789Z,36.20
2018-06-08T15:28:39.936Z,36.06
2018-06-08T15:31:08.008Z,35.94
2018-06-08T15:33:36.068Z,35.70
2018-06-08T15:36:04.180Z,35.60
2018-06-08T15:38:32.241Z,35.53
2018-06-08T15:41:00.290Z,35.36
2018-06-08T15:43:28.347Z,35.18
2018-06-08T15:45:56.412Z,35.00
2018-06-08T15:48:24.536Z,34.85
2018-06-08T15:50:52.596Z,34.84
2018-06-08T15:53:20.687Z,34.81
2018-06-08T15:55:48.744Z,34.77
2018-06-08T15:58:16.811Z,34.60
2018-06-08T16:00:44.892Z,34.50
2018-06-08T16:03:12.962Z,34.49
2018-06-08T16:05:41.016Z,34.49
2018-06-08T16:08:09.200Z,34.44
2018-06-08T16:10:37.248Z,34.31
2018-06-08T16:13:05.348Z,34.12
2018-06-08T16:15:33.382Z,34.07
2018-06-08T16:18:01.473Z,34.05
2018-06-08T16:20:29.555Z,34.01
2018-06-08T16:22:57.639Z,34.00
2018-06-08T16:25:25.703Z,33.95
2018-06-08T16:27:53.800Z,33.88
2018-06-08T16:30:21.887Z,33.83
2018-06-08T16:32:50.002Z,33.76
2018-06-08T16:35:18.172Z,33.73
2018-06-08T16:37:46.236Z,33.63
2018-06-08T16:40:14.305Z,33.63
2018-06-08T16:42:42.363Z,33.67
2018-06-08T16:45:10.446Z,33.67
2018-06-08T16:47:38.492Z,33.59
2018-06-08T16:50:06.577Z,33.55
2018-06-08T16:52:34.633Z,33.56
2018-06-08T16:55:02.696Z,33.55
2018-06-08T16:57:30.793Z,33.54
2018-06-08T16:59:58.848Z,33.44
2018-06-08T17:02:26.904Z,33.26
2018-06-08T17:04:54.965Z,33.07
2018-06-08T17:07:23.007Z,32.86
2018-06-08T17:09:51.061Z,32.81
2018-06-08T17:12:19.170Z,32.73
2018-06-08T17:14:47.254Z,32.65
2018-06-08T17:17:15.272Z,32.57
2018-06-08T17:19:43.324Z,32.48
2018-06-08T17:22:11.373Z,32.46
2018-06-08T17:24:39.444Z,32.35
2018-06-08T17:27:07.520Z,32.28
2018-06-08T17:29:35.584Z,32.32
2018-06-08T17:32:03.621Z,32.25
2018-06-08T17:34:31.668Z,32.18
2018-06-08T17:36:59.708Z,32.17
2018-06-08T17:39:27.765Z,32.05
2018-06-08T17:41:55.821Z,31.99
2018-06-08T17:44:23.881Z,31.94
2018-06-08T17:46:51.914Z,31.84
2018-06-08T17:49:19.973Z,31.73
2018-06-08T17:51:48.032Z,31.69
2018-06-08T17:54:16.070Z,31.65
2018-06-08T17:56:44.115Z,31.59
2018-06-08T17:59:12.159Z,31.57
2018-06-08T18:01:40.211Z,31.51
2018-06-08T18:04:08.261Z,31.47
2018-06-08T18:06:36.315Z,31.42
2018-06-08T18:09:06.160Z,31.36
2018-06-08T18:11:34.196Z,31.33
2018-06-08T18:14:02.273Z,31.30
2018-06-08T18:16:30.321Z,31.23
2018-06-08T18:18:58.348Z,31.19
2018-06-08T18:21:26.413Z,31.14
2018-06-08T18:23:54.477Z,31.06
2018-06-08T18:26:22.541Z,30.98
2018-06-08T18:28:50.580Z,30.90
2018-06-08T18:31:18.632Z,30.81
2018-06-08T18:33:46.665Z,30.71
2018-06-08T18:36:14.736Z,30.66
2018-06-08T18:38:42.788Z,30.63
2018-06-08T18:41:10.843Z,30.48
2018-06-08T18:43:38.891Z,30.39
2018-06-08T18:46:06.935Z,30.34
2018-06-08T18:48:34.986Z,30.28
2018-06-08T18:51:03.090Z,30.25
2018-06-08T18:53:31.131Z,30.22
2018-06-08T18:55:59.185Z,30.18
2018-06-08T18:58:27.252Z,30.13
2018-06-08T19:00:55.332Z,30.05
2018-06-08T19:03:23.371Z,29.97
2018-06-08T19:05:51.440Z,29.90
2018-06-08T19:08:19.496Z,29.84
2018-06-08T19:10:47.548Z,29.81
2018-06-08T19:13:15.677Z,29.76
2018-06-08T19:15:43.731Z,29.71
2018-06-08T19:18:11.809Z,29.66
2018-06-08T19:20:39.876Z,29.58
2018-06-08T19:23:07.924Z,29.53
2018-06-08T19:25:36.034Z,29.47
2018-06-08T19:28:04.068Z,29.41
2018-06-08T19:30:32.165Z,29.34
2018-06-08T19:33:00.233Z,29.26
2018-06-08T19:35:28.308Z,29.17
2018-06-08T19:37:56.480Z,29.09
2018-06-08T19:40:24.544Z,29.01
2018-06-08T19:42:52.720Z,28.93
2018-06-08T19:45:20.782Z,28.87
2018-06-08T19:47:48.863Z,28.81
2018-06-08T19:50:17.215Z,28.75
2018-06-08T19:52:45.304Z,28.69
2018-06-08T19:55:13.388Z,28.65
2018-06-08T19:57:41.452Z,28.60
2018-06-08T20:00:09.501Z,28.56
2018-06-08T20:02:37.588Z,28.50
2018-06-08T20:05:05.680Z,28.43
2018-06-08T20:07:33.728Z,28.37
2018-06-08T20:10:01.840Z,28.30
2018-06-08T20:12:29.890Z,28.21
2018-06-08T20:14:58.763Z,28.15
2018-06-08T20:17:26.817Z,28.10
2018-06-08T20:19:54.860Z,28.03
2018-06-08T20:22:22.936Z,27.98
2018-06-08T20:24:51.032Z,27.92
2018-06-08T20:27:19.112Z,27.86
2018-06-08T20:29:47.176Z,27.81
2018-06-08T20:32:15.240Z,27.68
2018-06-08T20:34:43.306Z,27.47
2018-06-08T20:37:11.389Z,27.29
2018-06-08T20:39:39.450Z,27.15
2018-06-08T20:42:07.534Z,27.01
2018-06-08T20:44:35.599Z,26.88
2018-06-08T20:47:03.777Z,26.77
2018-06-08T20:49:31.824Z,26.65
2018-06-08T20:51:59.975Z,26.53
2018-06-08T20:54:28.076Z,26.45
2018-06-08T20:57:07.601Z,26.35
2018-06-08T20:59:35.693Z,26.25
2018-06-08T21:02:03.783Z,26.17
2018-06-08T21:04:31.819Z,26.11
2018-06-08T21:06:59.880Z,26.06
2018-06-08T21:09:27.965Z,25.98
2018-06-08T21:11:56.037Z,25.89
2018-06-08T21:14:24.095Z,25.82
2018-06-08T21:16:52.188Z,25.77
2018-06-08T21:19:20.252Z,25.71
2018-06-08T21:21:48.322Z,25.64
2018-06-08T21:24:16.364Z,25.57
2018-06-08T21:26:44.420Z,25.51
2018-06-08T21:29:12.463Z,25.43
2018-06-08T21:31:40.515Z,25.36
2018-06-08T21:34:08.596Z,25.29
2018-06-08T21:36:36.600Z,25.24
2018-06-08T21:39:06.360Z,25.19
2018-06-08T21:41:34.692Z,25.15
2018-06-08T21:44:02.692Z,25.11
2018-06-08T21:46:30.737Z,25.08
2018-06-08T21:48:58.831Z,25.05
2018-06-08T21:51:26.885Z,24.98
2018-06-08T21:53:54.960Z,24.92
2018-06-08T21:56:23.020Z,24.89
2018-06-08T21:58:51.130Z,24.82
2018-06-08T22:01:19.172Z,24.78
2018-06-08T22:03:47.361Z,24.77
2018-06-08T22:06:15.432Z,24.77
2018-06-08T22:08:43.494Z,24.70
2018-06-08T22:11:11.566Z,24.68
2018-06-08T22:13:39.636Z,24.61
2018-06-08T22:16:07.680Z,24.57
2018-06-08T22:18:35.772Z,24.51
2018-06-08T22:21:03.832Z,24.45
2018-06-08T22:23:31.916Z,24.34
2018-06-08T22:25:59.976Z,24.26
2018-06-08T22:28:28.176Z,24.22
2018-06-08T22:30:56.225Z,24.15
2018-06-08T22:33:24.300Z,24.12
2018-06-08T22:35:52.355Z,24.05
2018-06-08T22:38:20.436Z,23.95
2018-06-08T22:40:48.501Z,23.99
2018-06-08T22:43:16.544Z,23.91
2018-06-08T22:45:44.588Z,23.88
2018-06-08T22:48:12.665Z,23.84
2018-06-08T22:50:40.744Z,23.79
2018-06-08T22:53:08.857Z,23.75
2018-06-08T22:55:36.916Z,23.72
2018-06-08T22:58:04.980Z,23.66
2018-06-08T23:00:33.041Z,23.60
2018-06-08T23:03:01.143Z,23.52
2018-06-08T23:05:29.197Z,23.42
2018-06-08T23:07:57.272Z,23.32
2018-06-08T23:10:25.345Z,23.25
2018-06-08T23:12:53.404Z,23.20
2018-06-08T23:15:21.577Z,23.14
2018-06-08T23:17:49.669Z,23.09
2018-06-08T23:20:17.724Z,23.02
2018-06-08T23:22:45.791Z,22.96
2018-06-08T23:25:13.851Z,22.91
2018-06-08T23:27:41.902Z,22.83
2018-06-08T23:30:10.008Z,22.78
2018-06-08T23:32:38.073Z,22.73
2018-06-08T23:35:06.132Z,22.68
2018-06-08T23:37:34.209Z,22.63
2018-06-08T23:40:02.278Z,22.55
2018-06-08T23:42:30.409Z,22.49
2018-06-08T23:44:58.532Z,22.46
2018-06-08T23:47:26.609Z,22.44
2018-06-08T23:49:54.658Z,22.38
2018-06-08T23:52:22.731Z,22.33
2018-06-08T23:54:50.807Z,22.29
2018-06-08T23:57:18.871Z,22.26
2018-06-08T23:59:47.772Z,22.24
